To NAV CANADA Home Page Login to a new session Search on AWWS site Feedback and Comments Disclaimer Vers la page française équivalente Tips FAQ What's new on the site To the Forecasts and Observations / NOTAM section To "File a Flight Plan" website Publications and other links Update of the User's profile FIC Telephone Numbers My Weather Data Folder Route Weather Data Regional Weather Data Local Weather Data To the Forecasts and Observations / NOTAM section
Request Generated 08/05/2015 at 04:19:37 UTC . Weather information available at that time is displayed.

METAR/TAF

PRINCE ALBERT/PRINCE ALBERT (GLASS FIELD)/SK    

SPECI CYPA 050405Z 07007KT 8SM -SHRA SCT070 OVC100 16/14 A2995 RMK
ACC3AC5 PRESRR SLP148 DENSITY ALT 1700FT=
METAR CYPA 050400Z 06009KT 8SM -TSRA FEW060CB OVC100 16/14 A2994 RMK
CB2AC6 PRESRR SLP146 DENSITY ALT 1700FT=
SPECI CYPA 050317Z 07012KT 10SM -TSRA SCT080CB OVC110 16/14 A2992 RMK
CB3AC5 SLP139 DENSITY ALT 1800FT=
METAR CYPA 050300Z 09007KT 15SM -SHRA SCT080 OVC120 17/14 A2993 RMK
ACC3AC5 SLP142 DENSITY ALT 1800FT=
METAR CYPA 050200Z 09010G17KT 15SM -SHRA SCT090 OVC120 18/14 A2991
RMK ACC3AC5 SLP135 DENSITY ALT 2000FT=

TAF AMD CYPA 050318Z 0503/0513 09008KT P6SM -SHRA SCT080 OVC120 TEMPO
0503/0506 VRB15G25KT 5SM TSRA OVC080CB
FM050800 10012G22KT P6SM SCT015 OVC040 TEMPO 0508/0513 5SM -RA BR
BKN015 OVC040 PROB30 0508/0513 VRB15G25KT 5SM TSRA BKN040CB
RMK NXT FCST BY 050700Z=
Your time UTC time
Weather data provided by Environment Canada and NAV CANADA